Time;durP1;ratioP1;P1;durP2;ratioP2;P2;SDS_P1;SDS_P2;PMS_P1;PMS_P2;Temp;Humidity;BMP_temperature;BMP_pressure;BME280_temperature;BME280_humidity;BME280_pressure;Samples;Min_cycle;Max_cycle;Signal;HPM_P1;HPM_P2
2023/04/18 00:00:09;;;;;;;5.38;3.50;;;19.10;59.70;;;;;;5019218;28;20045;-59
2023/04/18 00:02:37;;;;;;;5.47;4.00;;;19.00;59.70;;;;;;5018084;28;20045;-61
2023/04/18 00:05:04;;;;;;;5.47;3.72;;;19.00;59.70;;;;;;5017346;28;20116;-60
2023/04/18 00:07:30;;;;;;;3.97;3.50;;;19.00;59.70;;;;;;5015790;28;20067;-60
2023/04/18 00:09:55;;;;;;;3.60;3.00;;;19.00;59.70;;;;;;5018113;28;20068;-61
2023/04/18 00:12:21;;;;;;;4.28;3.40;;;19.00;59.70;;;;;;5013708;28;20417;-60
2023/04/18 00:14:49;;;;;;;3.90;3.38;;;19.00;59.70;;;;;;5012444;28;20460;-59
2023/04/18 00:17:15;;;;;;;4.35;3.67;;;19.00;59.70;;;;;;5016867;28;20509;-60
2023/04/18 00:19:41;;;;;;;3.97;3.42;;;19.00;59.70;;;;;;5014508;28;20040;-60
2023/04/18 00:22:07;;;;;;;4.95;2.90;;;19.00;59.80;;;;;;5013864;28;20034;-60
2023/04/18 00:24:32;;;;;;;3.70;3.17;;;18.90;59.70;;;;;;5011912;28;20029;-59
2023/04/18 00:26:58;;;;;;;3.80;3.08;;;18.90;59.70;;;;;;5013123;28;20034;-60
2023/04/18 00:29:23;;;;;;;4.78;3.13;;;18.90;59.70;;;;;;5018223;28;20303;-60
2023/04/18 00:31:49;;;;;;;3.40;3.10;;;18.90;59.70;;;;;;5017858;28;20040;-60
2023/04/18 00:34:14;;;;;;;3.17;2.67;;;18.90;59.70;;;;;;5016655;28;20042;-60
2023/04/18 00:36:40;;;;;;;3.47;2.70;;;18.90;59.70;;;;;;5015253;28;20491;-57
2023/04/18 00:39:05;;;;;;;3.22;2.72;;;18.90;59.70;;;;;;5015008;28;20037;-60
2023/04/18 00:41:31;;;;;;;3.53;3.17;;;18.90;59.70;;;;;;5011617;28;20342;-61
2023/04/18 00:43:56;;;;;;;3.88;2.90;;;18.90;59.70;;;;;;5015335;28;20457;-61
2023/04/18 00:46:22;;;;;;;3.53;2.78;;;18.90;59.60;;;;;;5016987;28;20108;-62
2023/04/18 00:48:48;;;;;;;5.63;3.42;;;18.90;59.70;;;;;;5017002;28;20448;-60
2023/04/18 00:51:14;;;;;;;3.40;2.97;;;19.00;59.80;;;;;;5013218;28;20029;-58
2023/04/18 00:53:41;;;;;;;2.90;2.60;;;19.00;59.70;;;;;;5012875;28;20044;-61
2023/04/18 00:56:06;;;;;;;3.28;2.20;;;19.10;59.80;;;;;;5012668;28;20475;-60
2023/04/18 00:58:32;;;;;;;2.70;2.47;;;19.10;59.80;;;;;;5020430;28;20113;-60
2023/04/18 01:00:57;;;;;;;4.00;3.17;;;19.10;59.70;;;;;;5018457;28;20037;-62
2023/04/18 01:03:25;;;;;;;2.80;2.60;;;19.20;59.60;;;;;;5020009;28;20397;-61
2023/04/18 01:05:52;;;;;;;3.83;2.92;;;19.20;59.70;;;;;;5019078;28;20096;-61
2023/04/18 01:08:20;;;;;;;2.92;2.70;;;19.20;59.60;;;;;;5013868;28;20451;-60
2023/04/18 01:10:46;;;;;;;2.45;2.22;;;19.30;59.60;;;;;;5013000;28;20037;-62
2023/04/18 01:13:13;;;;;;;3.03;2.72;;;19.30;59.60;;;;;;5022643;28;20040;-60
2023/04/18 01:15:40;;;;;;;3.40;2.65;;;19.30;59.50;;;;;;5016990;28;20140;-61
2023/04/18 01:18:07;;;;;;;2.40;2.20;;;19.30;59.30;;;;;;5019341;28;20096;-60
2023/04/18 01:20:35;;;;;;;5.18;2.90;;;19.30;59.30;;;;;;5018829;28;20029;-61
2023/04/18 01:23:01;;;;;;;2.38;2.17;;;19.40;59.40;;;;;;5022238;28;20034;-61
2023/04/18 01:25:27;;;;;;;4.97;2.80;;;19.40;59.40;;;;;;5022671;28;20030;-60
2023/04/18 01:27:53;;;;;;;2.67;2.25;;;19.40;59.40;;;;;;5019309;28;20559;-58
2023/04/18 01:30:19;;;;;;;3.80;2.25;;;19.40;59.30;;;;;;5023766;28;20117;-60
2023/04/18 01:32:44;;;;;;;2.58;2.38;;;19.40;59.30;;;;;;5023114;28;20546;-60
2023/04/18 01:35:10;;;;;;;2.85;2.33;;;19.40;59.30;;;;;;5024202;28;20395;-60
2023/04/18 01:37:36;;;;;;;2.97;2.47;;;19.40;59.30;;;;;;5017622;28;20039;-61
2023/04/18 01:40:01;;;;;;;3.75;2.15;;;19.40;59.40;;;;;;5022050;28;20121;-61
2023/04/18 01:42:26;;;;;;;4.57;2.17;;;19.40;59.30;;;;;;5019785;28;20101;-60
2023/04/18 01:44:52;;;;;;;2.80;2.00;;;19.40;59.20;;;;;;5017640;28;20528;-61
2023/04/18 01:47:17;;;;;;;2.42;2.22;;;19.40;59.20;;;;;;5017912;28;20122;-61
2023/04/18 01:49:46;;;;;;;2.13;1.80;;;19.50;59.20;;;;;;5017806;28;20136;-60
2023/04/18 01:52:13;;;;;;;2.17;1.98;;;19.50;59.20;;;;;;5021723;28;20108;-56
2023/04/18 01:54:39;;;;;;;3.22;2.13;;;19.40;59.10;;;;;;5017345;28;20121;-60
2023/04/18 01:57:04;;;;;;;2.70;2.08;;;19.40;59.10;;;;;;5024071;28;20136;-60
2023/04/18 01:59:30;;;;;;;2.92;2.10;;;19.40;59.10;;;;;;5022448;28;20037;-61
2023/04/18 02:01:55;;;;;;;2.20;2.00;;;19.40;59.10;;;;;;5022943;28;20037;-60
2023/04/18 02:04:21;;;;;;;2.33;2.08;;;19.40;59.00;;;;;;5019490;28;20226;-61
2023/04/18 02:06:46;;;;;;;2.95;2.13;;;19.40;59.00;;;;;;5019680;28;20128;-61
2023/04/18 02:09:12;;;;;;;2.40;2.00;;;19.40;59.10;;;;;;5020963;28;20458;-60
2023/04/18 02:11:37;;;;;;;2.42;2.22;;;19.40;59.10;;;;;;5021599;28;20021;-61
2023/04/18 02:14:02;;;;;;;2.13;1.90;;;19.40;59.00;;;;;;5015967;28;20055;-60
2023/04/18 02:16:28;;;;;;;3.13;2.15;;;19.40;59.10;;;;;;5016363;28;20057;-61
2023/04/18 02:18:53;;;;;;;2.40;2.20;;;19.30;59.00;;;;;;5017482;28;20172;-60
2023/04/18 02:21:20;;;;;;;2.63;2.00;;;19.30;58.90;;;;;;5023124;28;20041;-60
2023/04/18 02:23:45;;;;;;;2.50;2.15;;;19.30;58.90;;;;;;5016046;28;20682;-60
2023/04/18 02:26:11;;;;;;;2.20;2.00;;;19.30;59.00;;;;;;5011120;28;20052;-60
2023/04/18 02:28:37;;;;;;;2.25;2.05;;;19.30;59.00;;;;;;5017975;28;20571;-61
2023/04/18 02:31:03;;;;;;;1.95;1.75;;;19.30;59.10;;;;;;5022016;28;20030;-59
2023/04/18 02:33:29;;;;;;;4.85;2.03;;;19.20;59.10;;;;;;5017082;28;20091;-60
2023/04/18 02:35:54;;;;;;;2.42;1.95;;;19.20;59.10;;;;;;5015880;28;20127;-60
2023/04/18 02:38:20;;;;;;;2.05;1.90;;;19.20;59.10;;;;;;5016975;28;20563;-56
2023/04/18 02:40:45;;;;;;;3.15;2.00;;;19.20;59.20;;;;;;5016148;28;20521;-60
2023/04/18 02:43:11;;;;;;;2.08;1.88;;;19.20;59.20;;;;;;5012667;28;20034;-61
2023/04/18 02:45:36;;;;;;;2.13;1.92;;;19.20;59.20;;;;;;5015735;28;20045;-59
2023/04/18 02:48:02;;;;;;;2.10;1.75;;;19.20;59.20;;;;;;5012714;28;20086;-60
2023/04/18 02:50:28;;;;;;;1.75;1.65;;;19.20;59.30;;;;;;5015145;28;20030;-61
2023/04/18 02:52:54;;;;;;;2.30;2.10;;;19.10;59.10;;;;;;5016387;28;20029;-60
2023/04/18 02:55:20;;;;;;;1.70;1.60;;;19.10;59.10;;;;;;5015301;28;20390;-60
2023/04/18 02:57:46;;;;;;;3.72;1.88;;;19.10;59.10;;;;;;5017183;28;20061;-61
2023/04/18 03:00:13;;;;;;;2.55;1.92;;;19.10;59.10;;;;;;5019968;28;20460;-60
2023/04/18 03:02:39;;;;;;;2.80;1.77;;;19.10;59.10;;;;;;5018245;28;20014;-55
2023/04/18 03:05:05;;;;;;;3.90;1.88;;;19.10;59.10;;;;;;5016702;28;20099;-61
2023/04/18 03:07:31;;;;;;;2.78;2.03;;;19.10;59.10;;;;;;5016849;28;20069;-60
2023/04/18 03:09:56;;;;;;;2.85;1.77;;;19.10;59.10;;;;;;5018352;28;20038;-61
2023/04/18 03:12:22;;;;;;;2.92;2.55;;;19.10;59.10;;;;;;5011350;28;20116;-60
2023/04/18 03:14:47;;;;;;;6.50;2.13;;;19.10;59.10;;;;;;5017811;28;20051;-61
2023/04/18 03:17:13;;;;;;;2.33;1.95;;;19.10;59.20;;;;;;5014233;28;20034;-60
2023/04/18 03:19:38;;;;;;;3.72;1.85;;;19.10;59.20;;;;;;5018087;28;20079;-61
2023/04/18 03:22:04;;;;;;;3.08;2.35;;;19.10;59.20;;;;;;5015404;28;20034;-61
2023/04/18 03:24:30;;;;;;;2.13;1.90;;;19.10;59.20;;;;;;5012798;28;20032;-60
2023/04/18 03:26:55;;;;;;;2.53;2.33;;;19.10;59.30;;;;;;5019026;28;20048;-61
2023/04/18 03:29:21;;;;;;;2.28;2.08;;;19.10;59.20;;;;;;5018316;28;20037;-60
2023/04/18 03:31:46;;;;;;;4.35;2.45;;;19.10;59.20;;;;;;5011936;28;20724;-60
2023/04/18 03:34:12;;;;;;;2.78;2.10;;;19.00;59.20;;;;;;5016923;28;20121;-60
2023/04/18 03:36:37;;;;;;;2.50;2.00;;;19.10;59.20;;;;;;5014698;28;20103;-60
2023/04/18 03:39:03;;;;;;;2.47;1.95;;;19.00;59.20;;;;;;5016068;28;20037;-60
2023/04/18 03:41:29;;;;;;;2.78;2.55;;;19.00;59.20;;;;;;5013089;28;20045;-59
2023/04/18 03:43:54;;;;;;;2.67;2.17;;;19.00;59.20;;;;;;5010769;28;20317;-56
2023/04/18 03:46:20;;;;;;;1.92;1.83;;;19.00;59.20;;;;;;5012677;28;20029;-60
2023/04/18 03:48:46;;;;;;;2.72;2.20;;;19.00;59.20;;;;;;5012782;28;20520;-60
2023/04/18 03:51:13;;;;;;;2.67;2.47;;;19.00;59.20;;;;;;5016639;28;20349;-60
2023/04/18 03:53:38;;;;;;;2.25;1.90;;;19.10;59.20;;;;;;5016465;28;20046;-60
2023/04/18 03:56:04;;;;;;;3.60;2.40;;;19.00;59.20;;;;;;5017194;28;20216;-60
2023/04/18 03:58:29;;;;;;;2.63;2.42;;;19.00;59.20;;;;;;5015339;28;20458;-60
2023/04/18 04:00:55;;;;;;;2.58;2.38;;;19.00;59.20;;;;;;5014532;28;20373;-60
2023/04/18 04:03:20;;;;;;;2.63;2.40;;;19.00;59.20;;;;;;5017251;28;20049;-54
2023/04/18 04:05:46;;;;;;;2.33;2.13;;;19.10;59.20;;;;;;5015147;28;20049;-60
2023/04/18 04:08:13;;;;;;;2.45;2.03;;;19.00;59.20;;;;;;5017555;28;20110;-60
2023/04/18 04:10:39;;;;;;;2.58;2.38;;;19.00;59.20;;;;;;5009912;28;20032;-55
2023/04/18 04:13:04;;;;;;;2.60;2.40;;;19.00;59.20;;;;;;5011971;28;20034;-59
2023/04/18 04:15:30;;;;;;;2.70;2.50;;;19.00;59.20;;;;;;5011549;28;20036;-60
2023/04/18 04:17:55;;;;;;;2.97;2.78;;;19.00;59.20;;;;;;5017452;28;20034;-60
2023/04/18 04:20:24;;;;;;;3.45;3.15;;;19.00;59.20;;;;;;5018877;28;20319;-60
2023/04/18 04:22:52;;;;;;;2.70;2.40;;;19.00;59.20;;;;;;5018980;28;20400;-58
2023/04/18 04:25:18;;;;;;;2.80;2.53;;;19.00;59.20;;;;;;5015376;28;20037;-61
2023/04/18 04:27:44;;;;;;;3.15;2.85;;;19.00;59.20;;;;;;5015818;28;20128;-61
2023/04/18 04:30:10;;;;;;;3.35;2.97;;;19.00;59.20;;;;;;5015208;28;20113;-60
2023/04/18 04:32:37;;;;;;;4.70;2.80;;;19.00;59.20;;;;;;5014124;28;20535;-59
2023/04/18 04:35:03;;;;;;;3.72;2.70;;;19.00;59.20;;;;;;5012818;28;20141;-61
2023/04/18 04:37:28;;;;;;;3.38;3.10;;;19.00;59.20;;;;;;5014386;28;20803;-62
2023/04/18 04:39:55;;;;;;;3.28;2.97;;;19.00;59.20;;;;;;5011312;28;20224;-60
2023/04/18 04:42:24;;;;;;;3.30;3.00;;;19.00;59.20;;;;;;5018550;28;20411;-54
2023/04/18 04:44:49;;;;;;;3.70;3.40;;;19.00;59.80;;;;;;5011237;28;20064;-57
2023/04/18 04:47:15;;;;;;;3.92;3.53;;;19.00;59.20;;;;;;5016929;28;20072;-60
2023/04/18 04:49:40;;;;;;;4.07;3.67;;;18.90;59.20;;;;;;5013367;28;20124;-60
2023/04/18 04:52:06;;;;;;;4.65;3.60;;;18.90;59.20;;;;;;5015735;28;20026;-59
2023/04/18 04:54:31;;;;;;;4.25;3.85;;;18.90;59.20;;;;;;5019054;28;20076;-61
2023/04/18 04:56:57;;;;;;;4.22;3.83;;;18.90;59.20;;;;;;5016143;28;20072;-58
2023/04/18 04:59:22;;;;;;;3.88;3.47;;;18.90;59.10;;;;;;5015984;28;20029;-61
2023/04/18 05:01:47;;;;;;;5.43;4.13;;;18.90;59.10;;;;;;5015117;28;20025;-61
2023/04/18 05:04:13;;;;;;;5.40;3.90;;;18.90;59.10;;;;;;5012065;28;20114;-61
2023/04/18 05:06:39;;;;;;;4.35;3.95;;;18.90;59.10;;;;;;5011201;28;20041;-61
2023/04/18 05:09:04;;;;;;;5.75;4.00;;;18.90;59.10;;;;;;5009531;28;20349;-62
2023/04/18 05:11:30;;;;;;;5.15;4.35;;;18.90;59.10;;;;;;5013052;28;20141;-57
2023/04/18 05:13:55;;;;;;;4.47;4.07;;;18.90;59.20;;;;;;5012047;28;20037;-62
2023/04/18 05:16:21;;;;;;;4.90;4.32;;;18.90;59.10;;;;;;5013919;28;20050;-61
2023/04/18 05:18:46;;;;;;;5.78;4.35;;;18.90;59.10;;;;;;5016129;28;20680;-61
2023/04/18 05:21:12;;;;;;;4.70;4.28;;;18.90;59.10;;;;;;5016481;28;20132;-55
2023/04/18 05:23:38;;;;;;;5.07;4.47;;;18.80;59.10;;;;;;5015075;28;20500;-58
2023/04/18 05:26:04;;;;;;;12.40;9.07;;;18.80;59.00;;;;;;5015853;28;20030;-61
2023/04/18 05:28:30;;;;;;;13.45;9.50;;;18.80;59.20;;;;;;5014213;28;20049;-62
2023/04/18 05:30:59;;;;;;;11.32;8.27;;;18.80;59.30;;;;;;5014368;28;20037;-60
2023/04/18 05:33:29;;;;;;;19.73;12.27;;;18.80;59.30;;;;;;5014391;28;20039;-59
2023/04/18 05:35:55;;;;;;;27.98;14.68;;;18.80;59.40;;;;;;5013135;28;20050;-59
2023/04/18 05:38:21;;;;;;;21.70;14.57;;;18.80;59.70;;;;;;5010402;28;20489;-57
2023/04/18 05:40:47;;;;;;;31.73;13.40;;;18.80;60.00;;;;;;5003378;28;20103;-61
2023/04/18 05:43:12;;;;;;;20.88;13.05;;;18.90;60.30;;;;;;5027291;28;20096;-62
2023/04/18 05:45:38;;;;;;;21.38;12.90;;;18.90;60.70;;;;;;5015476;28;20038;-61
2023/04/18 05:48:03;;;;;;;21.02;11.80;;;18.90;60.60;;;;;;5018971;28;20049;-62
2023/04/18 05:50:29;;;;;;;19.75;12.30;;;19.00;60.50;;;;;;5012480;28;20108;-55
2023/04/18 05:52:57;;;;;;;19.85;11.65;;;19.00;60.10;;;;;;5010936;28;20022;-60
2023/04/18 05:55:23;;;;;;;19.60;11.88;;;19.10;60.10;;;;;;5016700;28;20025;-60
2023/04/18 05:57:49;;;;;;;18.77;11.50;;;19.10;59.90;;;;;;5016771;28;20025;-61
2023/04/18 06:00:15;;;;;;;21.80;11.15;;;19.10;59.90;;;;;;5016520;28;20566;-61
2023/04/18 06:02:41;;;;;;;16.40;10.50;;;19.10;59.80;;;;;;5020036;28;20037;-61
2023/04/18 06:05:07;;;;;;;17.15;10.98;;;19.10;59.70;;;;;;5014384;28;20030;-61
2023/04/18 06:07:33;;;;;;;18.15;10.77;;;19.10;59.70;;;;;;5016595;28;20042;-62
2023/04/18 06:09:58;;;;;;;17.30;10.55;;;19.10;59.70;;;;;;5017422;28;20033;-61
2023/04/18 06:12:24;;;;;;;16.50;9.68;;;19.10;59.70;;;;;;5018944;28;20428;-61
2023/04/18 06:14:50;;;;;;;15.40;9.20;;;19.10;59.60;;;;;;5016106;28;20064;-60
2023/04/18 06:17:15;;;;;;;19.02;10.50;;;19.00;59.70;;;;;;5021065;28;20037;-61
2023/04/18 06:19:41;;;;;;;17.00;9.27;;;19.00;59.50;;;;;;5019416;28;20044;-61
2023/04/18 06:22:06;;;;;;;16.95;10.02;;;19.00;59.50;;;;;;5019260;28;20158;-62
2023/04/18 06:24:32;;;;;;;14.68;10.63;;;19.00;59.40;;;;;;5018800;28;20039;-61
2023/04/18 06:26:57;;;;;;;16.70;9.43;;;19.00;59.90;;;;;;5017721;28;20041;-61
2023/04/18 06:29:26;;;;;;;13.88;9.93;;;19.00;59.40;;;;;;5019894;28;20033;-62
2023/04/18 06:31:51;;;;;;;13.85;9.63;;;19.00;59.40;;;;;;5017437;28;20042;-62
2023/04/18 06:34:16;;;;;;;11.52;9.10;;;19.00;59.40;;;;;;5017658;28;20049;-61
2023/04/18 06:36:42;;;;;;;14.43;8.98;;;19.00;59.30;;;;;;5014874;28;20496;-62
2023/04/18 06:39:08;;;;;;;12.50;8.98;;;19.00;59.30;;;;;;5017229;28;20036;-60
2023/04/18 06:41:33;;;;;;;12.98;8.63;;;19.00;59.30;;;;;;5016509;28;20029;-62
2023/04/18 06:43:59;;;;;;;12.20;8.82;;;19.00;59.30;;;;;;5016206;28;20030;-62
2023/04/18 06:46:24;;;;;;;12.48;8.68;;;19.00;59.30;;;;;;5016884;28;20029;-61
2023/04/18 06:48:50;;;;;;;12.30;8.40;;;18.90;59.20;;;;;;5017947;28;20041;-61
2023/04/18 06:51:15;;;;;;;12.30;9.07;;;18.90;59.30;;;;;;5015313;28;20115;-62
2023/04/18 06:53:41;;;;;;;12.45;8.02;;;18.90;59.30;;;;;;5016488;28;20562;-60
2023/04/18 06:56:06;;;;;;;14.60;8.88;;;18.90;59.60;;;;;;5018001;28;20022;-63
2023/04/18 06:58:32;;;;;;;11.70;8.50;;;18.90;59.60;;;;;;5017889;28;20044;-60
2023/04/18 07:00:57;;;;;;;11.27;8.23;;;18.90;59.60;;;;;;5016691;28;20044;-61
2023/04/18 07:03:23;;;;;;;12.18;8.77;;;18.90;59.60;;;;;;5013895;28;20033;-61
2023/04/18 07:05:49;;;;;;;12.80;8.07;;;18.90;59.60;;;;;;5011772;28;20030;-61
2023/04/18 07:08:15;;;;;;;12.48;8.52;;;18.90;59.50;;;;;;5011454;28;20026;-61
2023/04/18 07:10:41;;;;;;;12.57;7.63;;;18.90;59.70;;;;;;5016168;28;20516;-59
2023/04/18 07:13:06;;;;;;;14.88;8.38;;;18.90;59.90;;;;;;5014002;28;20367;-61
2023/04/18 07:15:34;;;;;;;12.90;8.23;;;19.00;60.30;;;;;;5014119;28;20409;-62
2023/04/18 07:18:00;;;;;;;13.23;9.75;;;19.00;60.20;;;;;;5013498;28;20084;-61
2023/04/18 07:20:25;;;;;;;16.83;9.77;;;19.10;60.20;;;;;;5010260;28;20025;-61
2023/04/18 07:22:51;;;;;;;16.23;9.65;;;19.10;60.30;;;;;;5014617;28;20605;-61
2023/04/18 07:25:16;;;;;;;19.15;10.15;;;19.10;60.20;;;;;;5017582;28;20072;-62
2023/04/18 07:27:42;;;;;;;21.13;9.50;;;19.20;60.10;;;;;;5017537;28;20038;-61
2023/04/18 07:30:08;;;;;;;19.75;10.57;;;19.20;60.10;;;;;;5014843;28;20041;-60
2023/04/18 07:32:33;;;;;;;17.02;9.77;;;19.20;60.00;;;;;;5005978;28;20084;-58
2023/04/18 07:34:59;;;;;;;18.55;10.38;;;19.20;60.00;;;;;;5031511;28;20148;-62
2023/04/18 07:37:24;;;;;;;19.67;10.63;;;19.20;60.00;;;;;;5014297;28;20515;-61
2023/04/18 07:39:50;;;;;;;18.73;11.07;;;19.20;60.00;;;;;;5019497;28;20040;-57
2023/04/18 07:42:16;;;;;;;16.58;10.10;;;19.20;59.90;;;;;;5015467;28;20409;-61
2023/04/18 07:44:42;;;;;;;17.88;9.82;;;19.20;59.80;;;;;;5011381;28;20065;-59
2023/04/18 07:47:11;;;;;;;19.63;10.68;;;19.20;59.80;;;;;;5018071;28;20049;-62
2023/04/18 07:49:37;;;;;;;21.63;10.90;;;19.20;59.90;;;;;;5014540;28;20033;-61
2023/04/18 07:52:03;;;;;;;19.00;9.73;;;19.20;59.90;;;;;;5015565;28;20052;-57
2023/04/18 07:54:28;;;;;;;20.63;10.55;;;19.20;59.80;;;;;;5017324;28;20540;-61
2023/04/18 07:56:54;;;;;;;17.60;8.85;;;19.20;59.80;;;;;;5013660;28;20040;-62
2023/04/18 07:59:19;;;;;;;19.23;10.55;;;19.20;59.80;;;;;;5016914;28;20512;-61
2023/04/18 08:01:45;;;;;;;16.58;9.10;;;19.20;59.80;;;;;;5013680;28;20033;-61
2023/04/18 08:04:11;;;;;;;20.48;11.00;;;19.20;59.80;;;;;;5010932;28;20030;-61
2023/04/18 08:06:36;;;;;;;19.98;10.75;;;19.10;59.70;;;;;;5015062;28;20037;-61
2023/04/18 08:09:05;;;;;;;16.85;9.55;;;19.10;59.70;;;;;;5013102;28;20068;-60
2023/04/18 08:11:32;;;;;;;22.52;10.98;;;19.10;59.80;;;;;;5017769;28;20480;-61
2023/04/18 08:13:57;;;;;;;16.73;10.65;;;19.10;59.70;;;;;;5010618;28;20040;-61
2023/04/18 08:16:23;;;;;;;15.50;9.52;;;19.10;59.70;;;;;;5018313;28;20025;-62
2023/04/18 08:18:49;;;;;;;15.73;9.82;;;19.10;59.80;;;;;;5009348;28;20033;-61
2023/04/18 08:21:14;;;;;;;19.17;10.20;;;19.10;59.80;;;;;;5015896;28;20041;-61
2023/04/18 08:23:40;;;;;;;18.60;10.98;;;19.10;60.40;;;;;;5017202;28;20223;-62
2023/04/18 08:26:05;;;;;;;15.25;9.25;;;19.10;59.80;;;;;;5017328;28;20033;-61
2023/04/18 08:28:31;;;;;;;14.63;9.30;;;19.10;59.80;;;;;;5013967;28;20037;-61
2023/04/18 08:30:56;;;;;;;19.25;10.05;;;19.10;59.80;;;;;;5011443;28;20113;-58
2023/04/18 08:33:23;;;;;;;16.63;9.82;;;19.10;59.80;;;;;;5012359;28;20026;-56
2023/04/18 08:35:49;;;;;;;13.35;8.63;;;19.10;59.90;;;;;;5015302;28;20053;-60
2023/04/18 08:38:17;;;;;;;14.43;8.98;;;19.10;59.90;;;;;;5015903;28;20041;-61
2023/04/18 08:40:43;;;;;;;13.25;8.68;;;19.00;59.90;;;;;;5009992;28;20528;-61
2023/04/18 08:43:12;;;;;;;15.02;9.27;;;19.00;59.90;;;;;;5010302;28;20449;-60
2023/04/18 08:45:39;;;;;;;17.23;8.75;;;19.00;59.90;;;;;;5016207;28;20099;-60
2023/04/18 08:48:06;;;;;;;14.63;8.57;;;19.00;60.20;;;;;;5008976;28;20500;-62
2023/04/18 08:50:32;;;;;;;15.35;8.38;;;19.10;60.20;;;;;;5015991;28;20037;-60
2023/04/18 08:52:59;;;;;;;9.13;7.07;;;19.10;60.10;;;;;;5013123;28;20041;-60
2023/04/18 08:55:25;;;;;;;12.45;8.80;;;19.10;59.90;;;;;;5016567;28;20419;-61
2023/04/18 08:57:53;;;;;;;12.00;7.68;;;19.20;59.80;;;;;;5014395;28;20034;-60
2023/04/18 09:00:19;;;;;;;11.25;7.65;;;19.20;59.70;;;;;;5013124;28;20120;-62
2023/04/18 09:02:45;;;;;;;11.95;7.15;;;19.20;59.70;;;;;;5012987;28;20180;-62
2023/04/18 09:05:18;;;;;;;12.95;7.65;;;19.20;59.70;;;;;;5012699;28;20499;-61
2023/04/18 09:07:44;;;;;;;10.07;6.75;;;19.20;59.90;;;;;;5012343;28;20037;-61
2023/04/18 09:10:11;;;;;;;15.60;7.28;;;19.30;60.00;;;;;;5012136;28;20037;-61
2023/04/18 09:12:45;;;;;;;10.85;6.72;;;19.30;59.90;;;;;;5012609;28;20036;-60
2023/04/18 09:15:15;;;;;;;10.00;7.10;;;19.30;59.90;;;;;;5014658;28;20034;-61
2023/04/18 09:17:48;;;;;;;12.20;7.10;;;19.40;59.80;;;;;;5012668;28;20038;-61
2023/04/18 09:20:36;;;;;;;9.27;7.18;;;19.40;59.70;;;;;;5017739;28;20061;-61
2023/04/18 09:23:04;;;;;;;11.35;6.93;;;19.40;59.70;;;;;;5014957;28;20037;-61
2023/04/18 09:25:39;;;;;;;12.80;6.45;;;19.40;59.70;;;;;;5015135;28;20509;-62
2023/04/18 09:28:21;;;;;;;14.23;7.05;;;19.50;59.70;;;;;;5010727;28;20034;-61
2023/04/18 09:30:48;;;;;;;10.18;7.20;;;19.50;59.80;;;;;;5005306;28;20033;-62
2023/04/18 09:33:13;;;;;;;10.15;6.07;;;19.50;59.70;;;;;;5014117;28;20044;-61
2023/04/18 09:35:38;;;;;;;9.13;6.50;;;19.60;59.70;;;;;;5016952;28;20053;-58
2023/04/18 09:38:05;;;;;;;9.13;6.50;;;19.60;59.80;;;;;;5029313;28;20026;-61
2023/04/18 09:40:31;;;;;;;11.13;6.68;;;19.60;59.90;;;;;;5018696;28;20034;-62
2023/04/18 09:42:57;;;;;;;12.25;6.90;;;19.60;60.00;;;;;;5016348;28;20084;-61
2023/04/18 09:45:23;;;;;;;9.45;6.30;;;19.60;60.10;;;;;;5018517;28;20025;-61
2023/04/18 09:47:51;;;;;;;10.23;7.05;;;19.60;60.20;;;;;;5020511;28;20255;-61
2023/04/18 09:50:19;;;;;;;11.55;6.90;;;19.60;60.30;;;;;;5021447;28;20361;-62
2023/04/18 09:52:46;;;;;;;12.38;6.45;;;19.60;60.30;;;;;;5019386;28;20037;-61
2023/04/18 09:55:18;;;;;;;10.60;6.45;;;19.60;60.50;;;;;;5017461;28;20405;-56
2023/04/18 09:57:45;;;;;;;9.73;6.72;;;19.60;60.50;;;;;;5017487;28;20072;-62
2023/04/18 10:00:23;;;;;;;7.50;5.80;;;19.60;60.50;;;;;;5013683;28;20062;-62
2023/04/18 10:03:04;;;;;;;9.35;6.32;;;19.60;60.50;;;;;;5017995;28;20042;-61
2023/04/18 10:05:35;;;;;;;9.77;6.50;;;19.60;60.60;;;;;;5015332;28;20045;-62
2023/04/18 10:08:01;;;;;;;8.80;5.97;;;19.60;60.50;;;;;;5015417;28;20133;-61
2023/04/18 10:10:27;;;;;;;7.72;5.40;;;19.60;60.50;;;;;;5019463;28;20599;-61
2023/04/18 10:12:56;;;;;;;8.93;5.97;;;19.50;60.40;;;;;;5015882;28;20032;-61
2023/04/18 10:15:24;;;;;;;9.85;6.30;;;19.60;60.50;;;;;;5020225;28;20053;-62
2023/04/18 10:17:58;;;;;;;7.95;5.60;;;19.60;60.50;;;;;;5015894;28;20420;-62
2023/04/18 10:20:28;;;;;;;8.00;5.30;;;19.60;60.60;;;;;;5017474;28;20341;-62
2023/04/18 10:22:55;;;;;;;9.98;5.90;;;19.60;60.60;;;;;;5019512;28;20544;-62
2023/04/18 10:25:39;;;;;;;9.55;6.15;;;19.60;60.50;;;;;;5016947;28;20037;-62
2023/04/18 10:28:06;;;;;;;7.63;5.00;;;19.50;60.50;;;;;;5013078;28;20038;-61
2023/04/18 10:30:38;;;;;;;8.13;5.85;;;19.50;60.60;;;;;;5013978;28;20084;-62
2023/04/18 10:33:29;;;;;;;6.65;5.82;;;19.50;60.60;;;;;;5014755;28;20026;-62
2023/04/18 10:36:03;;;;;;;8.32;6.18;;;19.50;60.60;;;;;;5016956;28;20061;-61
2023/04/18 10:38:30;;;;;;;6.55;5.47;;;19.50;60.70;;;;;;5014470;28;20416;-62
2023/04/18 10:41:22;;;;;;;7.20;6.22;;;19.50;60.70;;;;;;5015937;28;20045;-62
2023/04/18 10:44:05;;;;;;;7.95;5.68;;;19.40;60.60;;;;;;5015082;28;20037;-62
2023/04/18 10:46:31;;;;;;;7.55;6.18;;;19.40;60.70;;;;;;5017080;28;20033;-60
2023/04/18 10:49:15;;;;;;;7.63;5.97;;;19.40;60.70;;;;;;5015060;28;20045;-62
2023/04/18 10:51:48;;;;;;;7.80;5.40;;;19.40;60.70;;;;;;5018543;28;20311;-59
2023/04/18 10:54:45;;;;;;;7.90;6.45;;;19.40;60.90;;;;;;5014053;28;20365;-61
2023/04/18 10:57:12;;;;;;;8.52;5.93;;;19.40;61.10;;;;;;5010347;28;20042;-61
2023/04/18 10:59:40;;;;;;;9.40;5.70;;;19.50;61.10;;;;;;5017414;28;20125;-61
2023/04/18 11:02:24;;;;;;;7.75;5.05;;;19.50;61.10;;;;;;5017315;28;20496;-62
2023/04/18 11:04:52;;;;;;;19.23;6.45;;;19.60;61.10;;;;;;5016551;28;20053;-62
2023/04/18 11:07:18;;;;;;;11.70;6.05;;;19.60;61.10;;;;;;5018148;28;20436;-61
2023/04/18 11:09:53;;;;;;;9.90;6.50;;;19.70;61.10;;;;;;5016481;28;20030;-61
2023/04/18 11:12:19;;;;;;;6.15;5.05;;;19.70;60.80;;;;;;5013694;28;20069;-61
2023/04/18 11:14:47;;;;;;;6.55;5.45;;;19.70;60.80;;;;;;5018379;28;20060;-61
2023/04/18 11:17:20;;;;;;;7.35;5.63;;;19.70;60.70;;;;;;5013697;28;20342;-61
2023/04/18 11:19:46;;;;;;;10.00;5.93;;;19.80;60.60;;;;;;5016054;28;20500;-60
2023/04/18 11:22:12;;;;;;;6.60;5.53;;;19.80;60.50;;;;;;5014991;28;20088;-60
2023/04/18 11:24:38;;;;;;;7.60;5.70;;;19.80;60.50;;;;;;5014809;28;20037;-58
2023/04/18 11:27:03;;;;;;;8.77;5.90;;;19.80;60.50;;;;;;5009957;28;20441;-60
2023/04/18 11:29:29;;;;;;;7.55;5.60;;;19.80;60.50;;;;;;5013611;28;20564;-60
2023/04/18 11:31:54;;;;;;;8.65;5.38;;;19.80;60.40;;;;;;5010128;28;20041;-61
2023/04/18 11:34:20;;;;;;;8.82;5.50;;;19.80;60.50;;;;;;5015102;28;20620;-60
2023/04/18 11:36:50;;;;;;;8.80;5.90;;;19.70;60.40;;;;;;5014407;28;20042;-60
2023/04/18 11:39:15;;;;;;;10.63;5.85;;;19.70;60.40;;;;;;5013310;28;20037;-60
2023/04/18 11:41:43;;;;;;;7.97;5.80;;;19.70;60.40;;;;;;5011692;28;20390;-60
2023/04/18 11:44:08;;;;;;;10.60;5.93;;;19.70;60.30;;;;;;5013122;28;20040;-59
2023/04/18 11:46:41;;;;;;;9.27;6.07;;;19.80;60.40;;;;;;5009415;28;20041;-60
2023/04/18 11:49:06;;;;;;;8.63;5.90;;;19.70;60.30;;;;;;5010287;28;20038;-61
2023/04/18 11:51:37;;;;;;;8.23;6.30;;;19.70;60.20;;;;;;5011693;28;20088;-59
2023/04/18 11:54:03;;;;;;;9.20;6.32;;;19.70;60.30;;;;;;5011467;28;20077;-61
2023/04/18 11:56:29;;;;;;;8.02;5.75;;;19.70;60.30;;;;;;5012152;28;20065;-61
2023/04/18 11:58:55;;;;;;;8.70;5.68;;;19.70;60.20;;;;;;5012779;28;20424;-61
2023/04/18 12:01:22;;;;;;;11.23;5.85;;;19.70;60.20;;;;;;5018368;28;20505;-59
2023/04/18 12:04:05;;;;;;;8.60;6.15;;;19.70;60.20;;;;;;5016638;28;20152;-61
2023/04/18 12:06:46;;;;;;;8.77;5.88;;;19.70;60.20;;;;;;5015544;28;20463;-60
2023/04/18 12:09:16;;;;;;;8.45;5.82;;;19.70;60.20;;;;;;5010427;28;20034;-60
2023/04/18 12:11:41;;;;;;;9.25;6.05;;;19.60;60.20;;;;;;5013781;28;20049;-60
2023/04/18 12:14:21;;;;;;;9.30;6.85;;;19.70;60.20;;;;;;5015506;28;20099;-60
2023/04/18 12:16:50;;;;;;;8.63;6.55;;;19.70;60.10;;;;;;5036736;23;20049;-53
2023/04/18 12:19:16;;;;;;;10.13;6.60;;;19.60;60.00;;;;;;5032073;28;20037;-48
2023/04/18 12:22:15;;;;;;;10.52;6.70;;;19.60;60.10;;;;;;5032615;28;20513;-50
2023/04/18 12:24:41;;;;;;;11.05;6.35;;;19.60;60.00;;;;;;5001384;28;20052;-49
2023/04/18 12:27:06;;;;;;;10.68;6.65;;;19.60;60.10;;;;;;5024959;28;20059;-51
2023/04/18 12:29:32;;;;;;;9.10;6.82;;;19.60;60.00;;;;;;5029395;28;20040;-54
2023/04/18 12:31:57;;;;;;;8.15;6.40;;;19.60;60.00;;;;;;5027726;28;20040;-55
2023/04/18 12:34:23;;;;;;;8.18;6.47;;;19.60;60.00;;;;;;5030962;28;20534;-59
2023/04/18 12:36:48;;;;;;;8.70;6.88;;;19.60;60.00;;;;;;5030655;28;20029;-50
2023/04/18 12:39:14;;;;;;;8.23;5.88;;;19.50;59.90;;;;;;5028795;28;20037;-52
2023/04/18 12:41:39;;;;;;;9.20;6.68;;;19.50;60.00;;;;;;5029678;28;20175;-52